Main page
METAR-TAF:

METAR-TAF

Airports :

Balıkesir Koca Seyit Airport

Edremit, Turkey

latitude: 39-33-16N, longitude: 27-00-49E, elevation: 15 m

Current weather observation

The report was made 38 minutes ago, at 07:50 UTC
Wind 12 kt from the East/Southeast
Temperature 26°C
Humidity 54%
Pressure 1018 hPa
Visibility 10 km or more
no clouds below 1500 m and no cumulonimbus

METAR: LTFD 230750Z 11012KT CAVOK 26/16 Q1018

Time: 11:28 (08:28 UTC)

Forecast

The report was made 3 hours and 48 minutes ago, at 04:40 UTC
Forecast valid from 23 at 06 UTC to 23 at 15 UTC
Wind 2 kt from variable directions
Visibility 10 km or more
no clouds below 1500 m and no cumulonimbus

TAF: LTFD 230440Z 2306/2315 VRB02KT CAVOK

Weather observations and forecasts of more than 4000 airports (METAR and TAF reports).

The available stations are represented by yellow and red dots on the map.

Hover mouse over dot to see the name of the station.

Then click to see weather observations and forecasts.

To change the map : click on the green buttons with a black cross to zoom in, on the green button with a dash to zoom out, or on the green arrows for adjacent maps.


METAR-TAF: